You are not logged in, Click here to log in
ICAO: UHMM Country: 俄羅斯遠東城市馬加丹北部地區
Latitude: 59.911 Longitude: 150.72
Total Arrivals: 4 Total Departures: 4
Latest Arrival: 6RU631 (UHPP-UHMM)Jason. Li Latest Departure: NH879F (UHMM-RJCC)Jason. Li
Scenery:
METAR : UHMM 210730Z 22003MPS 9999 NSC 20/12 Q1017 R10/70D NOSIG RMK QFE747

馬加丹索科爾國際機場GDX